Flight Track Log - Related Links

Times and Time Zones

All times are in EDT time to prevent confusion due to time zone crossing. See the WBR2634 flight status page for this flight to view local times or setup timezone preferences in your user account.

Time Position Orientation Groundspeed Altitude Reporting Facility
EDT Latitude Longitude Course Direction KTS MPH feet Rate Location/Type
Thu 05:43:00 PM 40.8506 -90.7988 57° Northeast  Level FlightAware Approximate
Thu 05:43:05 PM 40.8225 -91.0842 73° East 122 140 2,500  Level Chicago Center
Thu 05:44:00 PM 40.8669 -90.7491 72° East  Level FlightAware Approximate
Thu 05:44:07 PM 40.8333 -91.0389 72° East 110 127 3,400  Level Chicago Center
Thu 05:45:00 PM 40.8802 -90.6957 72° East  Level FlightAware Approximate
Thu 05:45:09 PM 40.8422 -90.9994 73° East 111 128 4,200  Level Chicago Center
Thu 05:46:00 PM 40.8929 -90.6421 73° East  Level FlightAware Approximate
Thu 05:46:11 PM 40.8547 -90.9606 67° East 113 130 4,900  Level Chicago Center
Thu 05:47:00 PM 40.9054 -90.5884 73° East  Level FlightAware Approximate
Thu 05:47:13 PM 40.8628 -90.9200 75° East 114 131 5,700  Level Chicago Center
Thu 05:48:00 PM 40.9179 -90.5346 73° East  Level FlightAware Approximate
Thu 05:48:15 PM 40.8714 -90.8806 74° East 114 131 6,500  Level Chicago Center
Thu 05:49:17 PM 40.8808 -90.8394 73° East 116 133 7,200 726 Climbing Chicago Center
Thu 05:50:19 PM 40.8931 -90.7894 72° East 119 137 8,000 677 Climbing Chicago Center
Thu 05:51:21 PM 40.9008 -90.7461 77° East 121 139 8,600 528 Climbing Chicago Center
Thu 05:52:24 PM 40.9122 -90.7033 71° East 123 142 9,100 192 Climbing Chicago Center
Thu 05:53:26 PM 40.9242 -90.6517 73° East 145 167 9,000  Descending Chicago Center
Thu 05:54:28 PM 40.9358 -90.5978 74° East 152 175 9,100 48 Climbing Chicago Center
Thu 05:55:30 PM 40.9483 -90.5439 73° East 153 176 9,100  Level Chicago Center
Thu 05:56:32 PM 40.9636 -90.4781 73° East 157 181 9,100  Level Chicago Center
Thu 05:57:34 PM 40.9747 -90.4236 75° East 153 176 9,100  Level Chicago Center
Thu 05:58:36 PM 40.9889 -90.3686 71° East 156 180 9,100  Level Chicago Center
Thu 05:59:38 PM 41.0011 -90.3144 73° East 154 177 9,100  Level Chicago Center
Thu 06:00:40 PM 41.0125 -90.2581 75° East 157 181 9,100  Level Chicago Center
Thu 06:01:42 PM 41.0264 -90.2033 71° East 158 182 9,100  Level Chicago Center
Thu 06:02:45 PM 41.0381 -90.1478 74° East 156 180 9,100  Level Chicago Center
Thu 06:03:47 PM 41.0525 -90.0828 74° East 154 177 9,100  Level Chicago Center
Thu 06:04:49 PM 41.0642 -90.0278 74° East 154 177 9,100  Level Chicago Center
Thu 06:05:51 PM 41.0767 -89.9714 74° East 157 181 9,100  Level Chicago Center
Thu 06:06:53 PM 41.0894 -89.9161 73° East 157 181 9,100  Level Chicago Center
Thu 06:07:55 PM 41.1019 -89.8619 73° East 156 180 9,100  Level Chicago Center
Thu 06:08:57 PM 41.1142 -89.8078 73° East 154 177 9,100  Level Chicago Center
Thu 06:09:59 PM 41.1275 -89.7419 75° East 154 177 9,100  Level Chicago Center
Thu 06:11:01 PM 41.1392 -89.6908 73° East 147 169 9,100  Level Chicago Center
Thu 06:12:03 PM 41.1503 -89.6375 75° East 148 170 9,100  Level Chicago Center
Thu 06:13:06 PM 41.1628 -89.5844 73° East 150 173 9,100  Level Chicago Center
Thu 06:14:08 PM 41.1831 -89.5439 56° Northeast 136 157 9,100 48 Level Chicago Center
Thu 06:15:10 PM 41.2036 -89.5028 56° Northeast 133 153 9,200  Climbing Chicago Center
Thu 06:16:12 PM 41.2253 -89.4608 56° Northeast 137 158 9,100 -97 Descending Chicago Center
Thu 06:17:14 PM 41.2483 -89.4108 58° Northeast 133 153 9,000  Descending Chicago Center
Thu 06:18:16 PM 41.2669 -89.3683 60° Northeast 134 154 9,100 48 Climbing Chicago Center
Thu 06:19:18 PM 41.2856 -89.3244 61° Northeast 135 155 9,100  Level Chicago Center
Thu 06:20:20 PM 41.3047 -89.2831 58° Northeast 132 152 9,100  Level Chicago Center
Thu 06:21:23 PM 41.3244 -89.2411 58° Northeast 133 153 9,100  Level Chicago Center
Thu 06:22:25 PM 41.3436 -89.1989 59° Northeast 134 154 9,100 -48 Level Chicago Center
Thu 06:23:27 PM 41.3639 -89.1514 60° Northeast 134 154 9,000 -339 Descending Chicago Center
Thu 06:24:29 PM 41.3856 -89.1067 57° Northeast 141 162 8,400 -484 Descending Chicago Center
Thu 06:25:31 PM 41.4117 -89.0539 57° Northeast 143 165 8,000 -145 Descending Chicago Center
Thu 06:26:33 PM 41.4292 -89.0100 62° Northeast 137 158 8,100 48 Climbing Chicago Center
Thu 06:27:35 PM 41.4475 -88.9683 60° Northeast 132 152 8,100 -48 Level Chicago Center
Thu 06:28:37 PM 41.4672 -88.9258 58° Northeast 134 154 8,000 -48 Descending Chicago Center
Thu 06:29:39 PM 41.4853 -88.8847 60° Northeast 129 148 8,000 48 Level Chicago Center
Thu 06:30:42 PM 41.5069 -88.8342 60° Northeast 130 150 8,100 48 Climbing Chicago Center
Thu 06:31:44 PM 41.5264 -88.7933 58° Northeast 131 151 8,100  Level Chicago Center
Thu 06:32:46 PM 41.5464 -88.7511 58° Northeast 133 153 8,100 -48 Level Chicago Center
Thu 06:33:48 PM 41.5656 -88.7089 59° Northeast 135 155 8,000  Descending Chicago Center
Thu 06:34:50 PM 41.5856 -88.6639 59° Northeast 140 161 8,100  Climbing Chicago Center
Thu 06:35:52 PM 41.6111 -88.6139 56° Northeast 138 159 8,000  Descending Chicago Center
Thu 06:36:54 PM 41.6272 -88.5653 66° East 144 166 8,100  Climbing Chicago Center
Thu 06:37:56 PM 41.6442 -88.5172 65° Northeast 144 166 8,000  Descending Chicago Center
Thu 06:38:58 PM 41.6606 -88.4706 65° Northeast 141 162 8,100  Climbing Chicago Center
Thu 06:40:01 PM 41.6794 -88.4253 61° Northeast 139 160 8,000 -144 Descending Chicago Center
Thu 06:41:03 PM 41.6975 -88.3742 65° Northeast 148 170 7,800 -339 Descending Chicago Center
Thu 06:42:05 PM 41.7219 -88.3164 60° Northeast 150 173 7,300 -581 Descending Chicago Center
Thu 06:43:07 PM 41.7381 -88.2661 67° East 147 169 6,600 -677 Descending Chicago Center
Thu 06:44:09 PM 41.7594 -88.2122 62° Northeast 159 183 5,900 -677 Descending Chicago Center
Thu 06:45:11 PM 41.7822 -88.1569 61° Northeast 164 189 5,200 -484 Descending Chicago Center
Thu 06:46:13 PM 41.8028 -88.0994 64° Northeast 168 193 4,900 -435 Descending Chicago Center
Thu 06:47:15 PM 41.8342 -88.0367 56° Northeast 174 200 4,300 -871 Descending Chicago Center
Thu 06:48:17 PM 41.8706 -87.9969 39° Northeast 174 200 3,100 -1,074 Descending Chicago Center
Thu 06:48:50 PM 41.8833 -87.9667 60° Northeast 160 184 2,600 -912 Descending Chicago TRACON
Thu 06:50:22 PM 41.9347 -87.9225 33° Northeast 158 182 1,200 -900 Descending Chicago Center
Thu 06:50:50 PM 41.9500 -87.9000 48° Northeast 125 144 800 -857 Descending Chicago TRACON
Thu 06:52:00 PM 41.9667 -87.9000 56° Northeast  Level FlightAware Approximate
Thu 06:59:00 PM 41.9817 -87.9067 56° Northeast  Level Estimated

Login

Don't have an account? Register now (free) for customized features, flight alerts, and more!